x

Diamond Shoals (41025) Wave Buoy

1:50 - Mon 20th Feb 2017 All times are EST. -5 hours from GMT.

  • Sig Wave height 3.3ft
  • Swell Direction
  • Peak Period 5s
  • Average Period 4s
  • Wind
    20mph, 25mph gusts
  • Sea Temp 64°f
  • Luft Temp 59°f
  • Sea Pressure 1021mb
  • Diamond Shoals
  • Diamond Shoals

More Historic Weather Station data

Upgrade to MSW Pro to gain access to the past 30 days of data for over 8000 Wavebouys and Weather Stations around the globe.

Join Pro

Comparision Forecast

View Surf forecast
   
Mo 02/20 1:50 3.5ft 5s 4s 20 25 mph 1021mb 64f 59f
12:50 3.5ft 5s 4s 20 22 mph 1021.2mb 63f 58f
11:50 3ft 6s 4s 20 25 mph 1021.6mb 63f 57f
10:50 3ft 4s 4s 20 25 mph 1021.9mb 64f 57f
9:50 3ft 4s 4s 18 25 mph 1021.2mb 64f 59f
8:50 2.5ft 4s 4s 20 25 mph 1021.1mb 64f 60f
7:50 2ft 3s 3s 20 22 mph 1020.7mb 64f 61f
6:50 1.3ft 6s 4s 16 18 mph 1019.9mb 65f 62f
5:50 1.3ft 6s 4s 13
mph
1019.3mb 65f 62f
4:50 1.3ft 6s 4s 9
mph
1018.4mb 65f 63f
3:50 1.3ft 7s 4s 9 11 mph 1017.2mb 66f 63f
2:50 1.6ft 7s 5s 11
mph
1017.2mb 66f 63f
1:50 1.3ft 7s 5s 9 11 mph 1017.2mb 67f 64f
12:50 1.6ft 7s 5s 4 7 mph 1017.2mb 67f 64f
So 02/19 11:50 1.3ft 7s 5s 7 9 mph 1017.3mb 67f 64f
10:50 1.6ft 8s 5s 9 11 mph 1016.9mb 67f 63f
9:50 2ft 8s 5s 9
mph
1016.5mb 67f 63f
8:50 1.6ft 7s 5s 9 11 mph 1015.8mb 67f 62f
7:50 1.6ft 7s 5s 11 13 mph 1015.5mb 67f 62f
6:50 1.6ft 7s 5s 9 11 mph 1015mb 67f 62f
5:50 2ft 7s 5s 7 9 mph 1014mb 67f 61f
4:50 2ft 7s 5s 9 13 mph 1013.9mb 67f 61f
3:50 2.5ft 7s 5s 11 13 mph 1013.1mb 67f 61f
2:50 2.5ft 7s 4s 11 13 mph 1012.7mb 67f 59f
1:50 2.5ft 8s 5s 9 11 mph 1012.3mb 67f 59f
12:50 2.5ft 7s 5s 11 13 mph 1012.8mb 67f 59f
11:50 2ft 8s 4s 11 13 mph 1014.1mb 67f 60f
10:50 2.5ft 7s 5s 9 11 mph 1013.7mb 67f 60f
9:50 2.5ft 7s 5s 11 13 mph 1013.6mb 67f 62f
8:50 2ft 5s 4s 9 11 mph 1012.7mb 67f 62f
7:50 2.5ft 6s 4s 11 13 mph 1012.6mb 68f 63f
6:50 2.5ft 4s 4s 11 13 mph 1013.3mb 68f 63f
5:50 2.5ft 5s 4s 13 16 mph 1011.6mb 68f 64f
4:50 3ft 6s 4s 13 16 mph 1012.4mb 68f 65f
3:50 3.5ft 6s 4s 16 18 mph 1012.3mb 68f 66f
2:50 4ft 5s 4s 16 20 mph 1012.5mb 68f 66f
1:50 3.5ft 5s 4s 18 20 mph 1012.7mb 68f 67f
12:50 4ft 6s 4s 20 27 mph 1013mb 67f 67f
Sa 02/18 11:50 4.5ft 5s 4s 22 27 mph 1013.4mb 67f 67f
10:50 4.5ft 5s 4s 22 25 mph 1013mb 67f 67f
9:50 5ft 6s 4s 22 27 mph 1013mb 67f 67f
8:50 5.5ft 6s 5s 25 29 mph 1012.9mb 67f 68f
7:50 4.5ft 5s 4s 27 31 mph 1013.2mb 67f 67f
6:50 4ft 5s 4s 29 36 mph 1013.5mb 68f 67f
5:50 4.5ft 5s 4s 29 36 mph 1013.4mb 69f 67f
4:50 4.5ft 5s 4s 25 29 mph 1013.1mb 69f 67f
3:50 3.5ft 5s 4s 25 29 mph 1013.2mb 69f 67f
2:50 3.5ft 5s 4s 22 27 mph 1013.3mb 67f 65f
1:50 3.5ft 6s 4s 22 25 mph 1013.4mb 65f 65f
12:50 3ft 6s 4s 18 20 mph 1013.9mb 68f 65f
11:50 3ft 5s 4s 16 20 mph 1015mb 69f 64f
10:50 3.5ft 7s 5s 11 13 mph 1015.5mb 68f 63f
9:50 3ft 6s 4s 11 13 mph 1015.5mb 68f 62f
8:50 3ft 6s 5s 16 18 mph 1015.9mb 68f 62f
7:50 3ft 6s 5s 16 18 mph 1015.6mb 68f 63f
6:50 3ft 5s 5s 13 16 mph 1014.7mb 68f 63f
5:50 3.5ft 5s 5s 11 13 mph 1014.5mb 68f 63f
4:50 3.5ft 5s 4s 13 16 mph 1014.5mb 69f 64f
3:50 3.5ft 5s 4s 16 20 mph 1014.3mb 69f 63f
2:50 3.5ft 5s 4s 13 16 mph 1014.5mb 69f 63f
1:50 3.5ft 5s 4s 18 20 mph 1014.5mb 69f 62f
12:50 3.5ft 4s 4s 16 18 mph 1014.4mb 70f 61f
Fr 02/17 11:50 3.5ft 5s 4s 16 20 mph 1014.4mb 70f 61f
10:50 3.5ft 5s 4s 18 20 mph 1014.8mb 70f 62f
9:50 4.5ft 5s 4s 20 22 mph 1015mb 70f 62f
8:50 4.5ft 5s 5s 20 25 mph 1014.6mb 69f 62f
7:50 4ft 4s 4s 20 25 mph 1014.2mb 69f 61f
6:50 3.5ft 7s 4s 20 25 mph 1014.2mb 69f 60f
5:50 3.5ft 7s 5s 18 22 mph 1013.9mb 69f 59f
4:50 3ft 6s 5s 16 20 mph 1013.7mb 70f 57f
3:50 3.5ft 6s 5s 16 20 mph 1014.3mb 70f 55f
2:50 3.5ft 7s 6s 11 16 mph 1014.9mb 70f 53f
1:50 3ft 8s 6s 9 13 mph 1015.6mb 69f 50f
12:50 3.5ft 7s 6s 4 9 mph 1016.4mb 69f 48f
11:50 3.5ft 7s 6s 7 9 mph 1017.2mb 69f 47f
10:50 3.5ft 8s 5s 7 11 mph 1017.8mb 69f 47f
9:50 3.5ft 8s 5s 11 16 mph 1017.9mb 70f 46f
8:50 3.5ft 6s 5s 13 18 mph 1017.3mb 70f 46f
7:50 3.5ft 9s 5s 9 13 mph 1016.7mb 70f 45f
6:50 3.5ft 8s 5s 11 18 mph 1016.7mb 70f 45f
5:50 4ft 6s 5s 13 18 mph 1015.7mb 70f 45f
4:50 3.5ft 6s 5s 13 20 mph 1015.7mb 70f 45f
3:50 4ft 6s 5s 13 18 mph 1015.4mb 70f 46f
2:50 4ft 6s 5s 13 18 mph 1015mb 71f 46f
1:50 4ft 6s 5s 13 18 mph 1014.9mb 70f 46f
12:50 5ft 6s 5s 16 22 mph 1014.3mb 70f 47f
Do 02/16 11:50 5.5ft 6s 5s 13 20 mph 1014.3mb 70f 47f
10:50 5ft 6s 5s 16 20 mph 1014mb 70f 48f
9:50 5.5ft 6s 5s 20 25 mph 1013.4mb 70f 48f
8:50 6ft 7s 5s 20 27 mph 1013.2mb 70f 48f